sensor_id;sensor_type;location;lat;lon;timestamp;P1;durP1;ratioP1;P2;durP2;ratioP2
53271;SDS011;39160;48.580;7.756;2022-11-03T00:00:24;8.43;;;4.13;;
53271;SDS011;39160;48.580;7.756;2022-11-03T00:05:18;6.50;;;2.85;;
53271;SDS011;39160;48.580;7.756;2022-11-03T00:10:27;4.13;;;2.42;;
53271;SDS011;39160;48.580;7.756;2022-11-03T00:15:17;6.68;;;3.33;;
53271;SDS011;39160;48.580;7.756;2022-11-03T00:20:08;12.10;;;2.75;;
53271;SDS011;39160;48.580;7.756;2022-11-03T00:25:00;13.80;;;3.72;;
53271;SDS011;39160;48.580;7.756;2022-11-03T00:29:51;5.93;;;2.95;;
53271;SDS011;39160;48.580;7.756;2022-11-03T00:34:41;6.47;;;3.08;;
53271;SDS011;39160;48.580;7.756;2022-11-03T00:39:32;8.45;;;2.88;;
53271;SDS011;39160;48.580;7.756;2022-11-03T00:44:22;5.32;;;2.38;;
53271;SDS011;39160;48.580;7.756;2022-11-03T00:49:13;5.07;;;2.90;;
53271;SDS011;39160;48.580;7.756;2022-11-03T00:54:04;6.60;;;3.28;;
53271;SDS011;39160;48.580;7.756;2022-11-03T00:58:56;4.07;;;2.53;;
53271;SDS011;39160;48.580;7.756;2022-11-03T01:03:52;9.60;;;2.88;;
53271;SDS011;39160;48.580;7.756;2022-11-03T01:09:03;6.28;;;3.30;;
53271;SDS011;39160;48.580;7.756;2022-11-03T01:13:54;5.53;;;2.67;;
53271;SDS011;39160;48.580;7.756;2022-11-03T01:18:44;6.53;;;2.95;;
53271;SDS011;39160;48.580;7.756;2022-11-03T01:23:35;7.13;;;3.88;;
53271;SDS011;39160;48.580;7.756;2022-11-03T01:28:26;4.15;;;2.72;;
53271;SDS011;39160;48.580;7.756;2022-11-03T01:33:16;10.30;;;3.63;;
53271;SDS011;39160;48.580;7.756;2022-11-03T01:38:07;8.18;;;2.90;;
53271;SDS011;39160;48.580;7.756;2022-11-03T01:43:13;5.18;;;3.17;;
53271;SDS011;39160;48.580;7.756;2022-11-03T01:48:08;5.30;;;3.35;;
53271;SDS011;39160;48.580;7.756;2022-11-03T01:53:00;4.38;;;2.58;;
53271;SDS011;39160;48.580;7.756;2022-11-03T02:03:09;5.20;;;2.60;;
53271;SDS011;39160;48.580;7.756;2022-11-03T02:08:16;9.57;;;4.85;;
53271;SDS011;39160;48.580;7.756;2022-11-03T02:13:17;5.93;;;3.15;;
53271;SDS011;39160;48.580;7.756;2022-11-03T02:18:09;7.38;;;4.60;;
53271;SDS011;39160;48.580;7.756;2022-11-03T02:27:52;8.85;;;3.03;;
53271;SDS011;39160;48.580;7.756;2022-11-03T02:32:54;6.18;;;3.42;;
53271;SDS011;39160;48.580;7.756;2022-11-03T02:37:50;6.95;;;2.95;;
53271;SDS011;39160;48.580;7.756;2022-11-03T02:42:46;5.00;;;2.85;;
53271;SDS011;39160;48.580;7.756;2022-11-03T02:47:39;3.72;;;2.50;;
53271;SDS011;39160;48.580;7.756;2022-11-03T02:52:39;7.40;;;2.78;;
53271;SDS011;39160;48.580;7.756;2022-11-03T02:57:32;6.47;;;2.88;;
53271;SDS011;39160;48.580;7.756;2022-11-03T03:02:49;6.28;;;2.97;;
53271;SDS011;39160;48.580;7.756;2022-11-03T03:07:43;4.18;;;2.78;;
53271;SDS011;39160;48.580;7.756;2022-11-03T03:12:37;5.38;;;2.50;;
53271;SDS011;39160;48.580;7.756;2022-11-03T03:17:43;6.95;;;2.10;;
53271;SDS011;39160;48.580;7.756;2022-11-03T03:28:00;2.92;;;2.15;;
53271;SDS011;39160;48.580;7.756;2022-11-03T03:32:55;3.40;;;1.52;;
53271;SDS011;39160;48.580;7.756;2022-11-03T03:37:49;3.78;;;1.98;;
53271;SDS011;39160;48.580;7.756;2022-11-03T03:42:43;5.10;;;2.10;;
53271;SDS011;39160;48.580;7.756;2022-11-03T03:47:35;2.88;;;1.92;;
53271;SDS011;39160;48.580;7.756;2022-11-03T03:52:26;4.72;;;2.17;;
53271;SDS011;39160;48.580;7.756;2022-11-03T03:57:19;7.10;;;2.03;;
53271;SDS011;39160;48.580;7.756;2022-11-03T04:02:12;4.38;;;2.42;;
53271;SDS011;39160;48.580;7.756;2022-11-03T04:07:03;4.88;;;2.17;;
53271;SDS011;39160;48.580;7.756;2022-11-03T04:12:20;3.70;;;2.15;;
53271;SDS011;39160;48.580;7.756;2022-11-03T04:17:30;3.28;;;2.17;;
53271;SDS011;39160;48.580;7.756;2022-11-03T04:22:39;4.57;;;2.17;;
53271;SDS011;39160;48.580;7.756;2022-11-03T04:27:31;8.02;;;2.90;;
53271;SDS011;39160;48.580;7.756;2022-11-03T04:32:23;4.32;;;2.47;;
53271;SDS011;39160;48.580;7.756;2022-11-03T04:37:14;3.78;;;2.13;;
53271;SDS011;39160;48.580;7.756;2022-11-03T04:42:19;2.95;;;2.10;;
53271;SDS011;39160;48.580;7.756;2022-11-03T04:47:11;7.75;;;2.67;;
53271;SDS011;39160;48.580;7.756;2022-11-03T04:52:04;6.25;;;2.95;;
53271;SDS011;39160;48.580;7.756;2022-11-03T04:57:10;3.17;;;2.03;;
53271;SDS011;39160;48.580;7.756;2022-11-03T05:02:03;4.90;;;2.05;;
53271;SDS011;39160;48.580;7.756;2022-11-03T05:07:00;6.93;;;2.90;;
53271;SDS011;39160;48.580;7.756;2022-11-03T05:11:51;6.13;;;2.78;;
53271;SDS011;39160;48.580;7.756;2022-11-03T05:16:42;3.10;;;2.05;;
53271;SDS011;39160;48.580;7.756;2022-11-03T05:21:33;6.50;;;2.17;;
53271;SDS011;39160;48.580;7.756;2022-11-03T05:26:24;5.18;;;2.22;;
53271;SDS011;39160;48.580;7.756;2022-11-03T05:31:26;4.73;;;2.17;;
53271;SDS011;39160;48.580;7.756;2022-11-03T05:36:20;5.85;;;2.63;;
53271;SDS011;39160;48.580;7.756;2022-11-03T05:41:18;2.40;;;1.60;;
53271;SDS011;39160;48.580;7.756;2022-11-03T05:46:12;4.35;;;2.35;;
53271;SDS011;39160;48.580;7.756;2022-11-03T05:51:37;5.95;;;2.17;;
53271;SDS011;39160;48.580;7.756;2022-11-03T05:56:23;5.50;;;1.90;;
53271;SDS011;39160;48.580;7.756;2022-11-03T06:01:31;2.90;;;2.63;;
53271;SDS011;39160;48.580;7.756;2022-11-03T06:11:26;5.93;;;2.20;;
53271;SDS011;39160;48.580;7.756;2022-11-03T06:16:36;3.85;;;2.15;;
53271;SDS011;39160;48.580;7.756;2022-11-03T06:21:30;5.45;;;2.25;;
53271;SDS011;39160;48.580;7.756;2022-11-03T06:26:21;4.72;;;2.35;;
53271;SDS011;39160;48.580;7.756;2022-11-03T06:31:20;4.28;;;1.92;;
53271;SDS011;39160;48.580;7.756;2022-11-03T06:36:20;3.70;;;2.38;;
53271;SDS011;39160;48.580;7.756;2022-11-03T06:41:16;5.47;;;1.90;;
53271;SDS011;39160;48.580;7.756;2022-11-03T06:46:23;6.03;;;2.42;;
53271;SDS011;39160;48.580;7.756;2022-11-03T06:51:17;4.75;;;2.28;;
53271;SDS011;39160;48.580;7.756;2022-11-03T06:56:11;5.45;;;2.47;;
53271;SDS011;39160;48.580;7.756;2022-11-03T07:01:13;4.32;;;2.25;;
53271;SDS011;39160;48.580;7.756;2022-11-03T07:11:14;4.90;;;2.45;;
53271;SDS011;39160;48.580;7.756;2022-11-03T07:16:12;6.53;;;2.40;;
53271;SDS011;39160;48.580;7.756;2022-11-03T07:26:32;3.38;;;2.08;;
53271;SDS011;39160;48.580;7.756;2022-11-03T07:31:24;5.30;;;3.17;;
53271;SDS011;39160;48.580;7.756;2022-11-03T07:36:18;3.80;;;2.30;;
53271;SDS011;39160;48.580;7.756;2022-11-03T07:41:14;9.93;;;3.67;;
53271;SDS011;39160;48.580;7.756;2022-11-03T07:46:08;6.07;;;2.70;;
53271;SDS011;39160;48.580;7.756;2022-11-03T07:51:16;4.53;;;2.22;;
53271;SDS011;39160;48.580;7.756;2022-11-03T07:56:27;8.07;;;2.83;;
53271;SDS011;39160;48.580;7.756;2022-11-03T08:06:14;7.63;;;3.08;;
53271;SDS011;39160;48.580;7.756;2022-11-03T08:11:05;5.32;;;3.03;;
53271;SDS011;39160;48.580;7.756;2022-11-03T08:15:57;4.43;;;2.35;;
53271;SDS011;39160;48.580;7.756;2022-11-03T08:20:48;6.88;;;2.63;;
53271;SDS011;39160;48.580;7.756;2022-11-03T08:25:39;6.93;;;2.92;;
53271;SDS011;39160;48.580;7.756;2022-11-03T08:30:30;2.97;;;1.95;;
53271;SDS011;39160;48.580;7.756;2022-11-03T08:35:23;3.63;;;2.17;;
53271;SDS011;39160;48.580;7.756;2022-11-03T08:40:13;4.72;;;2.22;;
53271;SDS011;39160;48.580;7.756;2022-11-03T08:45:04;6.53;;;3.03;;
53271;SDS011;39160;48.580;7.756;2022-11-03T08:49:56;4.13;;;2.65;;
53271;SDS011;39160;48.580;7.756;2022-11-03T08:54:47;4.03;;;2.38;;
53271;SDS011;39160;48.580;7.756;2022-11-03T08:59:38;7.68;;;2.28;;
53271;SDS011;39160;48.580;7.756;2022-11-03T09:04:29;7.35;;;2.65;;
53271;SDS011;39160;48.580;7.756;2022-11-03T09:09:20;5.47;;;2.30;;
53271;SDS011;39160;48.580;7.756;2022-11-03T09:14:10;4.15;;;2.22;;
53271;SDS011;39160;48.580;7.756;2022-11-03T09:19:01;4.65;;;2.28;;
53271;SDS011;39160;48.580;7.756;2022-11-03T09:23:52;2.60;;;1.98;;
53271;SDS011;39160;48.580;7.756;2022-11-03T09:28:43;5.90;;;2.53;;
53271;SDS011;39160;48.580;7.756;2022-11-03T09:33:33;3.72;;;2.47;;
53271;SDS011;39160;48.580;7.756;2022-11-03T09:38:24;5.15;;;2.47;;
53271;SDS011;39160;48.580;7.756;2022-11-03T09:43:15;3.28;;;2.33;;
53271;SDS011;39160;48.580;7.756;2022-11-03T09:48:10;7.95;;;3.45;;
53271;SDS011;39160;48.580;7.756;2022-11-03T09:53:02;6.68;;;3.03;;
53271;SDS011;39160;48.580;7.756;2022-11-03T09:57:56;7.63;;;3.67;;
53271;SDS011;39160;48.580;7.756;2022-11-03T10:02:50;5.82;;;2.85;;
53271;SDS011;39160;48.580;7.756;2022-11-03T10:07:41;4.10;;;2.38;;
53271;SDS011;39160;48.580;7.756;2022-11-03T10:12:34;6.32;;;2.78;;
53271;SDS011;39160;48.580;7.756;2022-11-03T10:17:27;6.55;;;3.83;;
53271;SDS011;39160;48.580;7.756;2022-11-03T10:22:20;4.03;;;2.55;;
53271;SDS011;39160;48.580;7.756;2022-11-03T10:27:21;5.38;;;2.80;;
53271;SDS011;39160;48.580;7.756;2022-11-03T10:32:27;6.90;;;3.00;;
53271;SDS011;39160;48.580;7.756;2022-11-03T10:37:23;6.72;;;2.72;;
53271;SDS011;39160;48.580;7.756;2022-11-03T10:47:21;6.72;;;2.97;;
53271;SDS011;39160;48.580;7.756;2022-11-03T10:52:15;8.73;;;3.20;;
53271;SDS011;39160;48.580;7.756;2022-11-03T10:57:09;4.93;;;2.88;;
53271;SDS011;39160;48.580;7.756;2022-11-03T11:02:00;6.38;;;3.10;;
53271;SDS011;39160;48.580;7.756;2022-11-03T11:06:51;6.55;;;3.13;;
53271;SDS011;39160;48.580;7.756;2022-11-03T11:12:01;7.72;;;2.85;;
53271;SDS011;39160;48.580;7.756;2022-11-03T11:17:04;4.47;;;3.03;;
53271;SDS011;39160;48.580;7.756;2022-11-03T11:22:20;5.30;;;2.50;;
53271;SDS011;39160;48.580;7.756;2022-11-03T11:27:55;6.53;;;2.65;;
53271;SDS011;39160;48.580;7.756;2022-11-03T11:37:36;7.65;;;2.90;;
53271;SDS011;39160;48.580;7.756;2022-11-03T11:42:27;7.00;;;2.90;;
53271;SDS011;39160;48.580;7.756;2022-11-03T11:52:15;5.30;;;2.95;;
53271;SDS011;39160;48.580;7.756;2022-11-03T11:57:12;6.85;;;2.88;;
53271;SDS011;39160;48.580;7.756;2022-11-03T12:02:10;7.07;;;3.50;;
53271;SDS011;39160;48.580;7.756;2022-11-03T12:07:10;5.25;;;2.70;;
53271;SDS011;39160;48.580;7.756;2022-11-03T12:12:07;5.70;;;3.53;;
53271;SDS011;39160;48.580;7.756;2022-11-03T12:16:58;4.47;;;3.25;;
53271;SDS011;39160;48.580;7.756;2022-11-03T12:22:09;5.90;;;2.70;;
53271;SDS011;39160;48.580;7.756;2022-11-03T12:27:02;7.07;;;3.25;;
53271;SDS011;39160;48.580;7.756;2022-11-03T12:32:05;7.32;;;3.05;;
53271;SDS011;39160;48.580;7.756;2022-11-03T12:36:56;7.78;;;3.25;;
53271;SDS011;39160;48.580;7.756;2022-11-03T12:41:50;5.65;;;3.38;;
53271;SDS011;39160;48.580;7.756;2022-11-03T12:46:40;5.55;;;3.50;;
53271;SDS011;39160;48.580;7.756;2022-11-03T12:51:33;7.97;;;3.15;;
53271;SDS011;39160;48.580;7.756;2022-11-03T12:56:24;7.18;;;2.88;;
53271;SDS011;39160;48.580;7.756;2022-11-03T13:01:14;6.32;;;3.33;;
53271;SDS011;39160;48.580;7.756;2022-11-03T13:06:05;11.25;;;4.28;;
53271;SDS011;39160;48.580;7.756;2022-11-03T13:10:59;4.60;;;3.03;;
53271;SDS011;39160;48.580;7.756;2022-11-03T13:15:50;9.57;;;3.90;;
53271;SDS011;39160;48.580;7.756;2022-11-03T13:20:42;7.18;;;3.50;;
53271;SDS011;39160;48.580;7.756;2022-11-03T13:25:34;11.43;;;4.28;;
53271;SDS011;39160;48.580;7.756;2022-11-03T13:30:25;8.75;;;4.28;;
53271;SDS011;39160;48.580;7.756;2022-11-03T13:35:19;6.50;;;3.27;;
53271;SDS011;39160;48.580;7.756;2022-11-03T13:40:10;7.13;;;4.60;;
53271;SDS011;39160;48.580;7.756;2022-11-03T13:45:02;5.53;;;3.33;;
53271;SDS011;39160;48.580;7.756;2022-11-03T13:49:54;7.40;;;3.90;;
53271;SDS011;39160;48.580;7.756;2022-11-03T13:54:44;6.20;;;3.53;;
53271;SDS011;39160;48.580;7.756;2022-11-03T13:59:36;6.43;;;3.92;;
53271;SDS011;39160;48.580;7.756;2022-11-03T14:04:27;14.63;;;4.82;;
53271;SDS011;39160;48.580;7.756;2022-11-03T14:09:17;6.78;;;3.58;;
53271;SDS011;39160;48.580;7.756;2022-11-03T14:14:08;5.07;;;3.25;;
53271;SDS011;39160;48.580;7.756;2022-11-03T14:19:02;5.32;;;2.78;;
53271;SDS011;39160;48.580;7.756;2022-11-03T14:23:53;5.88;;;3.10;;
53271;SDS011;39160;48.580;7.756;2022-11-03T14:28:44;8.63;;;3.60;;
53271;SDS011;39160;48.580;7.756;2022-11-03T14:33:35;6.72;;;3.50;;
53271;SDS011;39160;48.580;7.756;2022-11-03T14:38:26;5.32;;;3.25;;
53271;SDS011;39160;48.580;7.756;2022-11-03T14:43:16;6.50;;;3.60;;
53271;SDS011;39160;48.580;7.756;2022-11-03T14:48:07;8.50;;;3.90;;
53271;SDS011;39160;48.580;7.756;2022-11-03T14:53:02;6.13;;;3.78;;
53271;SDS011;39160;48.580;7.756;2022-11-03T14:58:02;6.22;;;3.45;;
53271;SDS011;39160;48.580;7.756;2022-11-03T15:02:56;11.52;;;5.10;;
53271;SDS011;39160;48.580;7.756;2022-11-03T15:07:51;12.90;;;4.85;;
53271;SDS011;39160;48.580;7.756;2022-11-03T15:12:46;8.00;;;3.80;;
53271;SDS011;39160;48.580;7.756;2022-11-03T15:17:44;6.95;;;3.80;;
53271;SDS011;39160;48.580;7.756;2022-11-03T15:22:36;6.63;;;3.55;;
53271;SDS011;39160;48.580;7.756;2022-11-03T15:27:28;8.90;;;4.05;;
53271;SDS011;39160;48.580;7.756;2022-11-03T15:37:45;13.05;;;4.68;;
53271;SDS011;39160;48.580;7.756;2022-11-03T15:42:36;7.00;;;3.60;;
53271;SDS011;39160;48.580;7.756;2022-11-03T15:47:32;8.02;;;3.15;;
53271;SDS011;39160;48.580;7.756;2022-11-03T15:52:24;8.52;;;3.83;;
53271;SDS011;39160;48.580;7.756;2022-11-03T15:57:14;8.23;;;4.50;;
53271;SDS011;39160;48.580;7.756;2022-11-03T16:02:05;8.57;;;3.38;;
53271;SDS011;39160;48.580;7.756;2022-11-03T16:06:57;9.35;;;3.65;;
53271;SDS011;39160;48.580;7.756;2022-11-03T16:11:48;4.57;;;3.65;;
53271;SDS011;39160;48.580;7.756;2022-11-03T16:16:50;9.38;;;4.07;;
53271;SDS011;39160;48.580;7.756;2022-11-03T16:21:45;6.60;;;3.58;;
53271;SDS011;39160;48.580;7.756;2022-11-03T16:26:42;7.00;;;3.47;;
53271;SDS011;39160;48.580;7.756;2022-11-03T16:31:39;5.47;;;3.42;;
53271;SDS011;39160;48.580;7.756;2022-11-03T16:36:30;6.78;;;3.22;;
53271;SDS011;39160;48.580;7.756;2022-11-03T16:41:28;5.82;;;3.20;;
53271;SDS011;39160;48.580;7.756;2022-11-03T16:46:21;9.32;;;4.82;;
53271;SDS011;39160;48.580;7.756;2022-11-03T16:51:12;9.50;;;3.75;;
53271;SDS011;39160;48.580;7.756;2022-11-03T16:56:03;9.60;;;3.25;;
53271;SDS011;39160;48.580;7.756;2022-11-03T17:00:54;5.53;;;3.22;;
53271;SDS011;39160;48.580;7.756;2022-11-03T17:05:48;5.43;;;2.95;;
53271;SDS011;39160;48.580;7.756;2022-11-03T17:10:39;5.32;;;2.83;;
53271;SDS011;39160;48.580;7.756;2022-11-03T17:15:30;10.00;;;4.45;;
53271;SDS011;39160;48.580;7.756;2022-11-03T17:20:21;8.57;;;3.30;;
53271;SDS011;39160;48.580;7.756;2022-11-03T17:25:12;6.45;;;3.13;;
53271;SDS011;39160;48.580;7.756;2022-11-03T17:30:04;9.20;;;3.25;;
53271;SDS011;39160;48.580;7.756;2022-11-03T17:34:57;5.85;;;3.95;;
53271;SDS011;39160;48.580;7.756;2022-11-03T17:39:48;9.07;;;3.40;;
53271;SDS011;39160;48.580;7.756;2022-11-03T17:44:40;6.22;;;4.20;;
53271;SDS011;39160;48.580;7.756;2022-11-03T17:49:38;5.78;;;3.05;;
53271;SDS011;39160;48.580;7.756;2022-11-03T17:54:29;7.07;;;3.92;;
53271;SDS011;39160;48.580;7.756;2022-11-03T17:59:23;9.13;;;4.95;;
53271;SDS011;39160;48.580;7.756;2022-11-03T18:04:14;5.95;;;3.47;;
53271;SDS011;39160;48.580;7.756;2022-11-03T18:09:05;7.43;;;3.55;;
53271;SDS011;39160;48.580;7.756;2022-11-03T18:13:56;7.30;;;2.95;;
53271;SDS011;39160;48.580;7.756;2022-11-03T18:18:47;9.65;;;4.13;;
53271;SDS011;39160;48.580;7.756;2022-11-03T18:23:37;6.10;;;3.67;;
53271;SDS011;39160;48.580;7.756;2022-11-03T18:28:28;6.18;;;4.20;;
53271;SDS011;39160;48.580;7.756;2022-11-03T18:33:23;8.07;;;4.60;;
53271;SDS011;39160;48.580;7.756;2022-11-03T18:38:18;8.13;;;4.25;;
53271;SDS011;39160;48.580;7.756;2022-11-03T18:43:12;8.30;;;3.92;;
53271;SDS011;39160;48.580;7.756;2022-11-03T18:48:05;7.88;;;4.57;;
53271;SDS011;39160;48.580;7.756;2022-11-03T18:52:56;5.75;;;3.67;;
53271;SDS011;39160;48.580;7.756;2022-11-03T18:57:47;6.47;;;3.35;;
53271;SDS011;39160;48.580;7.756;2022-11-03T19:02:39;6.47;;;4.13;;
53271;SDS011;39160;48.580;7.756;2022-11-03T19:07:33;9.38;;;4.70;;
53271;SDS011;39160;48.580;7.756;2022-11-03T19:12:29;7.60;;;4.18;;
53271;SDS011;39160;48.580;7.756;2022-11-03T19:17:21;9.80;;;4.20;;
53271;SDS011;39160;48.580;7.756;2022-11-03T19:22:17;5.13;;;3.13;;
53271;SDS011;39160;48.580;7.756;2022-11-03T19:27:12;6.55;;;3.88;;
53271;SDS011;39160;48.580;7.756;2022-11-03T19:32:06;7.93;;;4.03;;
53271;SDS011;39160;48.580;7.756;2022-11-03T19:37:05;8.20;;;3.42;;
53271;SDS011;39160;48.580;7.756;2022-11-03T19:41:58;5.45;;;3.38;;
53271;SDS011;39160;48.580;7.756;2022-11-03T19:47:11;8.18;;;4.00;;
53271;SDS011;39160;48.580;7.756;2022-11-03T19:57:18;7.03;;;3.60;;
53271;SDS011;39160;48.580;7.756;2022-11-03T20:02:09;10.55;;;5.13;;
53271;SDS011;39160;48.580;7.756;2022-11-03T20:07:04;7.70;;;3.17;;
53271;SDS011;39160;48.580;7.756;2022-11-03T20:16:55;4.15;;;2.28;;
53271;SDS011;39160;48.580;7.756;2022-11-03T20:21:50;4.38;;;2.15;;
53271;SDS011;39160;48.580;7.756;2022-11-03T20:26:41;2.75;;;1.77;;
53271;SDS011;39160;48.580;7.756;2022-11-03T20:31:31;3.08;;;1.80;;
53271;SDS011;39160;48.580;7.756;2022-11-03T20:36:23;4.20;;;2.17;;
53271;SDS011;39160;48.580;7.756;2022-11-03T20:41:13;3.22;;;1.35;;
53271;SDS011;39160;48.580;7.756;2022-11-03T20:46:24;1.95;;;1.38;;
53271;SDS011;39160;48.580;7.756;2022-11-03T20:51:18;4.07;;;1.83;;
53271;SDS011;39160;48.580;7.756;2022-11-03T20:56:15;2.72;;;2.00;;
53271;SDS011;39160;48.580;7.756;2022-11-03T21:01:14;4.13;;;1.70;;
53271;SDS011;39160;48.580;7.756;2022-11-03T21:06:26;2.47;;;1.40;;
53271;SDS011;39160;48.580;7.756;2022-11-03T21:11:19;4.32;;;1.58;;
53271;SDS011;39160;48.580;7.756;2022-11-03T21:16:12;4.30;;;1.70;;
53271;SDS011;39160;48.580;7.756;2022-11-03T21:21:21;2.40;;;1.45;;
53271;SDS011;39160;48.580;7.756;2022-11-03T21:26:12;2.25;;;1.33;;
53271;SDS011;39160;48.580;7.756;2022-11-03T21:31:03;1.75;;;1.23;;
53271;SDS011;39160;48.580;7.756;2022-11-03T21:35:53;3.03;;;1.70;;
53271;SDS011;39160;48.580;7.756;2022-11-03T21:45:36;2.13;;;1.33;;
53271;SDS011;39160;48.580;7.756;2022-11-03T21:50:27;2.13;;;1.85;;
53271;SDS011;39160;48.580;7.756;2022-11-03T21:55:17;4.05;;;1.65;;
53271;SDS011;39160;48.580;7.756;2022-11-03T22:00:08;2.70;;;1.70;;
53271;SDS011;39160;48.580;7.756;2022-11-03T22:04:59;2.33;;;1.55;;
53271;SDS011;39160;48.580;7.756;2022-11-03T22:09:50;3.55;;;1.77;;
53271;SDS011;39160;48.580;7.756;2022-11-03T22:14:41;4.75;;;2.63;;
53271;SDS011;39160;48.580;7.756;2022-11-03T22:19:50;4.00;;;2.33;;
53271;SDS011;39160;48.580;7.756;2022-11-03T22:24:59;5.35;;;2.78;;
53271;SDS011;39160;48.580;7.756;2022-11-03T22:30:09;5.18;;;3.17;;
53271;SDS011;39160;48.580;7.756;2022-11-03T22:35:19;5.22;;;2.83;;
53271;SDS011;39160;48.580;7.756;2022-11-03T22:40:28;3.30;;;2.00;;
53271;SDS011;39160;48.580;7.756;2022-11-03T22:45:39;3.63;;;1.85;;
53271;SDS011;39160;48.580;7.756;2022-11-03T22:50:40;1.70;;;1.30;;
53271;SDS011;39160;48.580;7.756;2022-11-03T22:55:30;1.75;;;1.15;;
53271;SDS011;39160;48.580;7.756;2022-11-03T23:00:21;2.42;;;1.00;;
53271;SDS011;39160;48.580;7.756;2022-11-03T23:05:11;1.58;;;0.93;;
53271;SDS011;39160;48.580;7.756;2022-11-03T23:10:02;1.60;;;0.82;;
53271;SDS011;39160;48.580;7.756;2022-11-03T23:14:53;1.75;;;0.50;;
53271;SDS011;39160;48.580;7.756;2022-11-03T23:20:02;1.20;;;0.60;;
53271;SDS011;39160;48.580;7.756;2022-11-03T23:25:12;1.02;;;0.60;;
53271;SDS011;39160;48.580;7.756;2022-11-03T23:30:02;1.15;;;0.80;;
53271;SDS011;39160;48.580;7.756;2022-11-03T23:34:53;1.45;;;0.85;;
53271;SDS011;39160;48.580;7.756;2022-11-03T23:39:44;1.23;;;0.60;;
53271;SDS011;39160;48.580;7.756;2022-11-03T23:44:35;1.33;;;0.75;;
53271;SDS011;39160;48.580;7.756;2022-11-03T23:49:44;0.57;;;0.50;;
53271;SDS011;39160;48.580;7.756;2022-11-03T23:54:34;0.90;;;0.50;;
53271;SDS011;39160;48.580;7.756;2022-11-03T23:59:25;1.88;;;0.60;;
